Station Historical Data
Daily Summary for May 17, 2017 Units:  English    Metric   Both
« Previous Day
Next Day »
Daily Weekly Monthly Yearly Custom
  High: Low: Average:
Temperature: 59.5 °F 44.9 °F 51.3 °F
Dew Point: 48.8 °F 40.7 °F 44.1 °F
Humidity: 90 % 52 % 78 %
Wind Speed: 12.0 mph 0.0 mph 0.5 mph
Wind Gust: 17.0 mph - -
Wind:- - WNW
Pressure: 30.08 in 30.00 in -
Precipitation: 0.00 in    
Historical Graphs
 
 
Tabular Data for May 17, 2017
Time Temperature Dew Point Pressure Wind Wind Speed Wind Gust Humidity Rainfall Rate (Hourly) solar
00:02 47.0 °F 43.9 °F 30.03 in SW 1.0 mph 9.0 mph 89 % 0.07 in 0.00 W/m2
00:07 47.0 °F 43.9 °F 30.03 in Calm     89 % 0.07 in 0.00 W/m2
00:12 47.0 °F 43.9 °F 30.03 in Calm     89 % 0.07 in 0.00 W/m2
00:17 46.9 °F 43.5 °F 30.03 in Calm     88 % 0.08 in 0.00 W/m2
00:22 46.9 °F 43.5 °F 30.04 in Calm     88 % 0.08 in 0.00 W/m2
00:27 46.9 °F 43.5 °F 30.04 in Calm     88 % 0.07 in 0.00 W/m2
00:32 46.8 °F 43.4 °F 30.03 in Calm     88 % 0.10 in 0.00 W/m2
00:37 46.8 °F 43.4 °F 30.03 in Calm     88 % 0.13 in 0.00 W/m2
00:42 46.8 °F 43.4 °F 30.03 in Calm     88 % 0.13 in 0.00 W/m2
00:47 46.8 °F 43.4 °F 30.03 in Calm     88 % 0.16 in 0.00 W/m2
00:52 46.8 °F 43.4 °F 30.03 in Calm     88 % 0.14 in 0.00 W/m2
01:02 46.7 °F 43.3 °F 30.03 in Calm     88 % 0.10 in 0.00 W/m2
01:07 46.8 °F 43.4 °F 30.03 in Calm     88 % 0.09 in 0.00 W/m2
01:12 46.8 °F 43.7 °F 30.03 in Calm     89 % 0.07 in 0.00 W/m2
01:17 46.8 °F 43.4 °F 30.03 in Calm     88 % 0.07 in 0.00 W/m2
01:22 46.7 °F 43.6 °F 30.03 in Calm     89 % 0.06 in 0.00 W/m2
01:27 46.8 °F 43.7 °F 30.02 in Calm     89 % 0.06 in 0.00 W/m2
01:32 46.7 °F 43.6 °F 30.02 in Calm     89 % 0.05 in 0.00 W/m2
01:37 46.7 °F 43.6 °F 30.02 in Calm     89 % 0.00 in 0.00 W/m2
01:42 46.7 °F 43.6 °F 30.02 in Calm     89 % 0.00 in 0.00 W/m2
01:47 46.7 °F 43.6 °F 30.02 in Calm     89 % 0.00 in 0.00 W/m2
01:52 46.7 °F 43.6 °F 30.02 in Calm     89 % 0.00 in 0.00 W/m2
01:57 46.6 °F 43.5 °F 30.03 in Calm     89 % 0.00 in 0.00 W/m2
02:02 46.6 °F 43.5 °F 30.03 in Calm     89 % 0.00 in 0.00 W/m2
02:07 46.5 °F 43.4 °F 30.02 in Calm     89 % 0.00 in 0.00 W/m2
02:12 46.5 °F 43.4 °F 30.03 in Calm     89 % 0.00 in 0.00 W/m2
02:14 46.5 °F 43.4 °F 30.03 in Calm     89 % 0.00 in 0.00 W/m2
02:19 46.5 °F 43.4 °F 30.03 in Calm     89 % 0.00 in 0.00 W/m2
02:24 46.5 °F 43.4 °F 30.02 in Calm     89 % 0.00 in 0.00 W/m2
02:29 46.5 °F 43.4 °F 30.03 in Calm     89 % 0.00 in 0.00 W/m2
02:34 46.5 °F 43.4 °F 30.03 in Calm     89 % 0.00 in 0.00 W/m2
02:39 46.5 °F 43.4 °F 30.02 in Calm     89 % 0.00 in 0.00 W/m2
02:44 46.5 °F 43.4 °F 30.02 in Calm     89 % 0.00 in 0.00 W/m2
02:49 46.5 °F 43.4 °F 30.02 in Calm     89 % 0.00 in 0.00 W/m2
02:54 46.5 °F 43.4 °F 30.02 in Calm     89 % 0.00 in 0.00 W/m2
02:59 46.5 °F 43.4 °F 30.02 in Calm     89 % 0.00 in 0.00 W/m2
03:04 46.5 °F 43.4 °F 30.02 in Calm     89 % 0.00 in 0.00 W/m2
03:09 46.5 °F 43.4 °F 30.02 in Calm     89 % 0.00 in 0.00 W/m2
03:14 46.5 °F 43.4 °F 30.02 in Calm     89 % 0.00 in 0.00 W/m2
03:24 46.5 °F 43.4 °F 30.02 in Calm     89 % 0.00 in 0.00 W/m2
03:29 46.5 °F 43.4 °F 30.02 in Calm     89 % 0.00 in 0.00 W/m2
03:34 46.5 °F 43.4 °F 30.02 in Calm     89 % 0.00 in 0.00 W/m2
03:39 46.4 °F 43.3 °F 30.02 in Calm     89 % 0.00 in 0.00 W/m2
03:44 46.4 °F 43.3 °F 30.02 in Calm     89 % 0.00 in 0.00 W/m2
03:50 46.4 °F 43.3 °F 30.02 in Calm     89 % 0.00 in 0.00 W/m2
03:55 46.4 °F 43.3 °F 30.02 in Calm     89 % 0.00 in 0.00 W/m2
04:00 46.3 °F 43.2 °F 30.02 in Calm     89 % 0.00 in 0.00 W/m2
04:05 46.3 °F 43.2 °F 30.02 in Calm     89 % 0.00 in 0.00 W/m2
04:10 46.2 °F 43.1 °F 30.02 in Calm     89 % 0.00 in 0.00 W/m2
04:15 46.1 °F 43.0 °F 30.03 in Calm     89 % 0.00 in 0.00 W/m2
04:20 46.0 °F 43.0 °F 30.02 in Calm     89 % 0.00 in 0.00 W/m2
04:25 46.0 °F 43.0 °F 30.03 in Calm     89 % 0.00 in 0.00 W/m2
04:30 45.9 °F 42.8 °F 30.03 in Calm     89 % 0.00 in 0.00 W/m2
04:35 45.9 °F 42.8 °F 30.03 in Calm     89 % 0.00 in 0.00 W/m2
04:40 45.8 °F 42.8 °F 30.02 in Calm     89 % 0.00 in 0.00 W/m2
04:45 45.7 °F 42.7 °F 30.02 in Calm     89 % 0.00 in 0.00 W/m2
04:50 45.6 °F 42.5 °F 30.02 in Calm     89 % 0.00 in 0.00 W/m2
04:51 45.6 °F 42.5 °F 30.02 in Calm     89 % 0.00 in 0.00 W/m2
04:56 45.6 °F 42.5 °F 30.02 in Calm     89 % 0.00 in 0.00 W/m2
05:01 45.5 °F 42.5 °F 30.02 in Calm     89 % 0.00 in 0.00 W/m2
05:06 45.5 °F 42.5 °F 30.02 in Calm     89 % 0.00 in 0.00 W/m2
05:11 45.5 °F 42.5 °F 30.02 in Calm     89 % 0.00 in 0.00 W/m2
05:16 45.5 °F 42.5 °F 30.02 in Calm     89 % 0.00 in 0.00 W/m2
05:21 45.5 °F 42.5 °F 30.02 in Calm     89 % 0.00 in 0.00 W/m2
05:26 45.5 °F 42.5 °F 30.02 in Calm     89 % 0.00 in 0.00 W/m2
05:31 45.6 °F 42.5 °F 30.02 in Calm     89 % 0.00 in 0.00 W/m2
05:36 45.6 °F 42.5 °F 30.02 in Calm     89 % 0.00 in 0.00 W/m2
05:41 45.7 °F 42.7 °F 30.02 in Calm     89 % 0.00 in 0.00 W/m2
05:46 45.7 °F 42.7 °F 30.02 in Calm     89 % 0.00 in 0.00 W/m2
05:51 45.7 °F 42.7 °F 30.02 in Calm     89 % 0.00 in 5.00 W/m2
05:56 45.7 °F 42.7 °F 30.02 in Calm     89 % 0.00 in 7.00 W/m2
06:01 45.7 °F 42.7 °F 30.03 in Calm     89 % 0.00 in 11.00 W/m2
06:06 45.7 °F 42.7 °F 30.03 in Calm     89 % 0.00 in 14.00 W/m2
06:11 45.6 °F 42.5 °F 30.03 in Calm     89 % 0.00 in 19.00 W/m2
06:16 45.6 °F 42.5 °F 30.03 in Calm     89 % 0.00 in 21.00 W/m2
06:21 45.4 °F 42.3 °F 30.03 in Calm     89 % 0.00 in 21.00 W/m2
06:26 45.3 °F 42.3 °F 30.04 in Calm     89 % 0.00 in 30.00 W/m2
06:31 45.2 °F 42.2 °F 30.04 in Calm     89 % 0.00 in 33.00 W/m2
06:36 45.1 °F 42.1 °F 30.04 in Calm     89 % 0.00 in 26.00 W/m2
06:41 45.1 °F 42.1 °F 30.05 in Calm     89 % 0.00 in 54.00 W/m2
06:46 45.0 °F 42.0 °F 30.05 in Calm     89 % 0.00 in 49.00 W/m2
06:51 45.0 °F 42.0 °F 30.05 in Calm     89 % 0.00 in 70.00 W/m2
06:56 45.0 °F 42.0 °F 30.05 in Calm     89 % 0.00 in 146.00 W/m2
07:01 44.9 °F 41.9 °F 30.05 in Calm     89 % 0.00 in 162.00 W/m2
07:06 44.9 °F 41.9 °F 30.05 in Calm     89 % 0.00 in 186.00 W/m2
07:11 44.9 °F 41.9 °F 30.05 in Calm     89 % 0.00 in 199.00 W/m2
07:16 44.9 °F 41.9 °F 30.05 in Calm     89 % 0.00 in 174.00 W/m2
07:21 44.9 °F 41.9 °F 30.05 in Calm     89 % 0.00 in 193.00 W/m2
07:26 44.9 °F 41.9 °F 30.05 in Calm     89 % 0.00 in 230.00 W/m2
07:31 44.9 °F 41.9 °F 30.06 in Calm     89 % 0.00 in 262.00 W/m2
07:36 45.0 °F 42.0 °F 30.05 in Calm     89 % 0.00 in 202.00 W/m2
07:41 45.0 °F 42.0 °F 30.06 in Calm     89 % 0.00 in 179.00 W/m2
07:46 45.1 °F 42.1 °F 30.06 in Calm     89 % 0.00 in 301.00 W/m2
07:51 45.1 °F 42.1 °F 30.06 in Calm     89 % 0.00 in 350.00 W/m2
07:56 45.2 °F 42.2 °F 30.06 in Calm     89 % 0.00 in 381.00 W/m2
08:01 45.3 °F 42.3 °F 30.06 in Calm     89 % 0.00 in 403.00 W/m2
08:06 45.6 °F 42.5 °F 30.06 in Calm     89 % 0.00 in 367.00 W/m2
08:11 45.8 °F 42.8 °F 30.06 in Calm     89 % 0.00 in 202.00 W/m2
08:17 45.8 °F 42.8 °F 30.06 in Calm     89 % 0.00 in 292.00 W/m2
08:22 45.9 °F 42.8 °F 30.06 in Calm     89 % 0.00 in 181.00 W/m2
08:27 46.0 °F 43.0 °F 30.07 in Calm     89 % 0.00 in 181.00 W/m2
08:32 46.1 °F 43.0 °F 30.07 in Calm     89 % 0.00 in 195.00 W/m2
08:37 46.2 °F 43.1 °F 30.07 in Calm     89 % 0.00 in 171.00 W/m2
08:42 46.2 °F 43.1 °F 30.07 in Calm     89 % 0.00 in 155.00 W/m2
08:47 46.3 °F 43.2 °F 30.06 in Calm     89 % 0.00 in 192.00 W/m2
08:52 46.3 °F 43.2 °F 30.06 in Calm     89 % 0.00 in 186.00 W/m2
08:57 46.5 °F 43.4 °F 30.06 in Calm     89 % 0.00 in 439.00 W/m2
09:02 46.6 °F 43.5 °F 30.07 in Calm     89 % 0.00 in 278.00 W/m2
09:07 46.7 °F 43.6 °F 30.07 in Calm     89 % 0.00 in 250.00 W/m2
09:12 46.9 °F 43.8 °F 30.07 in Calm     89 % 0.00 in 279.00 W/m2
09:17 46.9 °F 43.8 °F 30.07 in Calm     89 % 0.00 in 269.00 W/m2
09:22 46.9 °F 43.8 °F 30.07 in Calm     89 % 0.00 in 322.00 W/m2
09:27 46.9 °F 43.8 °F 30.07 in Calm     89 % 0.00 in 849.00 W/m2
09:32 47.1 °F 44.0 °F 30.07 in Calm     89 % 0.00 in 861.00 W/m2
09:37 47.4 °F 44.3 °F 30.07 in Calm     89 % 0.00 in 809.00 W/m2
09:42 47.6 °F 44.8 °F 30.07 in Calm     90 % 0.00 in 724.00 W/m2
09:47 47.9 °F 45.1 °F 30.07 in Calm     90 % 0.00 in 837.00 W/m2
09:52 48.1 °F 45.3 °F 30.07 in Calm     90 % 0.00 in 933.00 W/m2
09:57 48.3 °F 45.5 °F 30.08 in Calm     90 % 0.00 in 881.00 W/m2
10:02 48.5 °F 45.7 °F 30.08 in Calm     90 % 0.00 in 791.00 W/m2
10:07 48.5 °F 45.7 °F 30.08 in Calm     90 % 0.00 in 846.00 W/m2
10:12 48.7 °F 45.9 °F 30.08 in Calm     90 % 0.00 in 802.00 W/m2
10:14 48.7 °F 45.9 °F 30.07 in Calm     90 % 0.00 in 809.00 W/m2
10:19 48.7 °F 45.9 °F 30.07 in Calm     90 % 0.00 in 886.00 W/m2
10:24 48.9 °F 46.1 °F 30.07 in Calm     90 % 0.00 in 809.00 W/m2
10:29 49.0 °F 45.9 °F 30.07 in WNW 4.0 mph 6.0 mph 89 % 0.00 in 831.00 W/m2
10:34 48.9 °F 45.8 °F 30.07 in Calm   6.0 mph 89 % 0.00 in 816.00 W/m2
10:39 48.9 °F 45.8 °F 30.07 in Calm   4.0 mph 89 % 0.00 in 830.00 W/m2
10:44 48.9 °F 45.8 °F 30.08 in NW 1.0 mph 4.0 mph 89 % 0.00 in 840.00 W/m2
10:49 49.1 °F 46.0 °F 30.08 in Calm   2.0 mph 89 % 0.00 in 882.00 W/m2
10:54 49.4 °F 46.3 °F 30.07 in Calm   2.0 mph 89 % 0.00 in 925.00 W/m2
10:59 49.7 °F 46.6 °F 30.08 in Calm   3.0 mph 89 % 0.00 in 220.00 W/m2
11:04 50.0 °F 46.9 °F 30.08 in Calm   2.0 mph 89 % 0.00 in 1025.00 W/m2
11:09 50.1 °F 47.0 °F 30.07 in Calm   1.0 mph 89 % 0.00 in 956.00 W/m2
11:14 50.2 °F 47.1 °F 30.07 in Calm   1.0 mph 89 % 0.00 in 956.00 W/m2
11:19 50.3 °F 46.9 °F 30.08 in Calm   2.0 mph 88 % 0.00 in 1025.00 W/m2
11:24 50.9 °F 47.8 °F 30.08 in Calm   3.0 mph 89 % 0.00 in 1056.00 W/m2
11:29 51.1 °F 47.4 °F 30.08 in Calm   3.0 mph 87 % 0.00 in 1044.00 W/m2
11:34 51.4 °F 47.4 °F 30.08 in NW 1.0 mph 4.0 mph 86 % 0.00 in 933.00 W/m2
11:39 51.6 °F 47.2 °F 30.07 in Calm   5.0 mph 85 % 0.00 in 925.00 W/m2
11:44 51.8 °F 46.5 °F 30.07 in West 1.0 mph 6.0 mph 82 % 0.00 in 932.00 W/m2
11:49 52.2 °F 47.2 °F 30.07 in WNW 1.0 mph 4.0 mph 83 % 0.00 in 939.00 W/m2
11:54 52.4 °F 46.1 °F 30.07 in NW 2.0 mph 4.0 mph 79 % 0.00 in 981.00 W/m2
11:59 52.7 °F 46.0 °F 30.07 in NNW 2.0 mph 7.0 mph 78 % 0.00 in 965.00 W/m2
12:04 53.1 °F 46.8 °F 30.07 in NNW 2.0 mph 6.0 mph 79 % 0.00 in 976.00 W/m2
12:09 53.4 °F 46.0 °F 30.07 in Calm   4.0 mph 76 % 0.00 in 963.00 W/m2
12:10 53.5 °F 46.1 °F 30.07 in Calm   4.0 mph 76 % 0.00 in 984.00 W/m2
12:15 53.8 °F 46.8 °F 30.07 in Calm   4.0 mph 77 % 0.00 in 1046.00 W/m2
12:20 54.1 °F 46.7 °F 30.07 in NW 1.0 mph 5.0 mph 76 % 0.00 in 274.00 W/m2
12:25 54.2 °F 45.8 °F 30.06 in NW 1.0 mph 4.0 mph 73 % 0.00 in 963.00 W/m2
12:30 54.5 °F 46.4 °F 30.07 in Calm   5.0 mph 74 % 0.00 in 1041.00 W/m2
12:35 54.6 °F 45.8 °F 30.07 in WNW 2.0 mph 2.0 mph 72 % 0.00 in 255.00 W/m2
12:40 54.7 °F 45.9 °F 30.07 in West 3.0 mph 7.0 mph 72 % 0.00 in 207.00 W/m2
12:45 55.0 °F 47.2 °F 30.07 in Calm   2.0 mph 75 % 0.00 in 1114.00 W/m2
12:50 55.3 °F 47.5 °F 30.06 in WNW 3.0 mph 5.0 mph 75 % 0.00 in 1204.00 W/m2
12:55 55.5 °F 46.3 °F 30.06 in West 1.0 mph 8.0 mph 71 % 0.00 in 292.00 W/m2
12:56 55.5 °F 47.0 °F 30.06 in Calm   4.0 mph 73 % 0.00 in 292.00 W/m2
13:01 55.3 °F 46.4 °F 30.06 in West 6.0 mph 6.0 mph 72 % 0.00 in 1132.00 W/m2
13:06 55.5 °F 47.0 °F 30.06 in WNW 6.0 mph 6.0 mph 73 % 0.00 in 1132.00 W/m2
13:11 55.9 °F 47.4 °F 30.06 in NW 5.0 mph 5.0 mph 73 % 0.00 in 225.00 W/m2
13:16 55.7 °F 47.2 °F 30.06 in West 6.0 mph 6.0 mph 73 % 0.00 in 290.00 W/m2
13:21 55.4 °F 47.3 °F 30.06 in WNW 3.0 mph 6.0 mph 74 % 0.00 in 1199.00 W/m2
13:26 55.2 °F 46.7 °F 30.06 in Calm   3.0 mph 73 % 0.00 in 223.00 W/m2
13:31 55.1 °F 47.0 °F 30.05 in West 2.0 mph 13.0 mph 74 % 0.00 in 297.00 W/m2
13:36 55.1 °F 47.7 °F 30.05 in Calm   1.0 mph 76 % 0.00 in 967.00 W/m2
13:42 55.4 °F 48.3 °F 30.05 in Calm   1.0 mph 77 % 0.00 in 977.00 W/m2
13:47 55.9 °F 48.1 °F 30.05 in Calm   4.0 mph 75 % 0.00 in 984.00 W/m2
13:52 56.3 °F 48.1 °F 30.05 in Calm   1.0 mph 74 % 0.00 in 967.00 W/m2
13:57 56.6 °F 48.8 °F 30.05 in Calm   1.0 mph 75 % 0.00 in 991.00 W/m2
14:02 56.9 °F 48.7 °F 30.05 in West 1.0 mph 1.0 mph 74 % 0.00 in 944.00 W/m2
14:07 57.2 °F 48.6 °F 30.05 in Calm   2.0 mph 73 % 0.00 in 939.00 W/m2
14:12 57.4 °F 48.1 °F 30.05 in WNW 1.0 mph 9.0 mph 71 % 0.00 in 939.00 W/m2
14:17 57.4 °F 47.7 °F 30.05 in NW 3.0 mph 9.0 mph 70 % 0.00 in 937.00 W/m2
14:22 57.5 °F 47.4 °F 30.05 in NNW 1.0 mph 2.0 mph 69 % 0.00 in 937.00 W/m2
14:27 57.5 °F 48.2 °F 30.05 in Calm   1.0 mph 71 % 0.00 in 904.00 W/m2
14:32 57.6 °F 48.3 °F 30.04 in NW 1.0 mph 11.0 mph 71 % 0.00 in 900.00 W/m2
14:37 57.5 °F 48.2 °F 30.04 in Calm   10.0 mph 71 % 0.00 in 911.00 W/m2
14:42 57.6 °F 47.1 °F 30.04 in Calm   1.0 mph 68 % 0.00 in 898.00 W/m2
14:47 57.9 °F 48.2 °F 30.04 in West 1.0 mph 9.0 mph 70 % 0.00 in 874.00 W/m2
14:52 58.0 °F 47.5 °F 30.05 in WNW 1.0 mph 1.0 mph 68 % 0.00 in 872.00 W/m2
14:57 58.1 °F 46.8 °F 30.04 in Calm   9.0 mph 66 % 0.00 in 865.00 W/m2
15:02 58.1 °F 47.2 °F 30.04 in Calm   10.0 mph 67 % 0.00 in 849.00 W/m2
15:07 58.1 °F 47.6 °F 30.04 in WNW 1.0 mph 1.0 mph 68 % 0.00 in 835.00 W/m2
15:12 58.2 °F 46.9 °F 30.04 in Calm   1.0 mph 66 % 0.00 in 830.00 W/m2
15:17 58.3 °F 47.8 °F 30.04 in Calm   13.0 mph 68 % 0.00 in 814.00 W/m2
15:22 58.5 °F 47.2 °F 30.03 in Calm   5.0 mph 66 % 0.00 in 802.00 W/m2
15:27 58.5 °F 47.2 °F 30.03 in WNW 2.0 mph 11.0 mph 66 % 0.00 in 793.00 W/m2
15:32 58.6 °F 47.3 °F 30.04 in Calm   1.0 mph 66 % 0.00 in 779.00 W/m2
15:37 58.7 °F 47.0 °F 30.03 in Calm   1.0 mph 65 % 0.00 in 779.00 W/m2
15:42 58.9 °F 45.9 °F 30.03 in West 1.0 mph 1.0 mph 62 % 0.00 in 773.00 W/m2
15:44 58.9 °F 46.3 °F 30.03 in Calm   1.0 mph 63 % 0.00 in 773.00 W/m2
15:47 58.9 °F 46.8 °F 30.03 in Calm   10.0 mph 64 % 0.00 in 765.00 W/m2
15:48 58.9 °F 46.8 °F 30.03 in Calm   10.0 mph 64 % 0.00 in 761.00 W/m2
15:53 59.0 °F 46.0 °F 30.03 in Calm   12.0 mph 62 % 0.00 in 751.00 W/m2
15:58 59.0 °F 47.7 °F 30.03 in Calm   1.0 mph 66 % 0.00 in 722.00 W/m2
16:03 59.1 °F 45.7 °F 30.03 in NW 2.0 mph 11.0 mph 61 % 0.00 in 707.00 W/m2
16:06 59.1 °F 46.1 °F 30.03 in Calm   1.0 mph 62 % 0.00 in 700.00 W/m2
16:11 59.2 °F 46.2 °F 30.03 in WNW 9.0 mph 9.0 mph 62 % 0.00 in 694.00 W/m2
16:16 59.2 °F 45.3 °F 30.02 in Calm   1.0 mph 60 % 0.00 in 673.00 W/m2
16:21 59.3 °F 47.5 °F 30.02 in NNW 1.0 mph 1.0 mph 65 % 0.00 in 682.00 W/m2
16:26 59.4 °F 46.0 °F 30.02 in Calm   1.0 mph 61 % 0.00 in 643.00 W/m2
16:31 59.4 °F 46.4 °F 30.02 in WSW 9.0 mph 9.0 mph 62 % 0.00 in 624.00 W/m2
16:36 59.4 °F 45.5 °F 30.02 in WSW 9.0 mph 10.0 mph 60 % 0.00 in 606.00 W/m2
16:41 59.4 °F 44.6 °F 30.02 in Calm     58 % 0.00 in 592.00 W/m2
16:46 59.5 °F 44.3 °F 30.02 in WNW 1.0 mph 7.0 mph 57 % 0.00 in 577.00 W/m2
16:51 59.5 °F 45.6 °F 30.02 in Calm   1.0 mph 60 % 0.00 in 561.00 W/m2
16:56 59.5 °F 45.6 °F 30.02 in Calm     60 % 0.00 in 547.00 W/m2
17:01 59.5 °F 44.7 °F 30.02 in Calm   4.0 mph 58 % 0.00 in 534.00 W/m2
17:06 59.5 °F 44.7 °F 30.02 in WNW 5.0 mph 13.0 mph 58 % 0.00 in 517.00 W/m2
17:11 59.5 °F 43.3 °F 30.02 in Calm   7.0 mph 55 % 0.00 in 497.00 W/m2
17:12 59.5 °F 44.3 °F 30.02 in Calm   7.0 mph 57 % 0.00 in 496.00 W/m2
17:17 59.5 °F 44.3 °F 30.02 in Calm   1.0 mph 57 % 0.00 in 483.00 W/m2
17:18 59.5 °F 42.9 °F 30.02 in NW 4.0 mph 9.0 mph 54 % 0.00 in 475.00 W/m2
17:23 59.5 °F 44.3 °F 30.02 in Calm   12.0 mph 57 % 0.00 in 462.00 W/m2
17:28 59.5 °F 42.9 °F 30.02 in Calm   1.0 mph 54 % 0.00 in 445.00 W/m2
17:33 59.4 °F 42.3 °F 30.02 in Calm   11.0 mph 53 % 0.00 in 429.00 W/m2
17:38 59.5 °F 42.4 °F 30.02 in Calm   1.0 mph 53 % 0.00 in 411.00 W/m2
17:41 59.4 °F 43.7 °F 30.02 in Calm   1.0 mph 56 % 0.00 in 408.00 W/m2
17:46 59.4 °F 43.2 °F 30.02 in Calm   1.0 mph 55 % 0.00 in 387.00 W/m2
17:51 59.4 °F 42.3 °F 30.01 in Calm   1.0 mph 53 % 0.00 in 373.00 W/m2
17:56 59.4 °F 42.3 °F 30.01 in NW 9.0 mph 10.0 mph 53 % 0.00 in 357.00 W/m2
18:01 59.4 °F 44.2 °F 30.01 in NW 12.0 mph 14.0 mph 57 % 0.00 in 336.00 W/m2
18:06 59.2 °F 42.6 °F 30.01 in Calm   12.0 mph 54 % 0.00 in 322.00 W/m2
18:11 59.1 °F 43.4 °F 30.01 in Calm   10.0 mph 56 % 0.00 in 309.00 W/m2
18:16 59.0 °F 41.4 °F 30.01 in NW 5.0 mph 17.0 mph 52 % 0.00 in 294.00 W/m2
18:21 59.0 °F 41.9 °F 30.01 in Calm   11.0 mph 53 % 0.00 in 276.00 W/m2
18:26 59.0 °F 41.9 °F 30.01 in Calm   1.0 mph 53 % 0.00 in 260.00 W/m2
18:31 58.9 °F 44.6 °F 30.00 in Calm   1.0 mph 59 % 0.00 in 244.00 W/m2
18:36 58.7 °F 42.6 °F 30.00 in Calm   1.0 mph 55 % 0.00 in 227.00 W/m2
18:41 58.7 °F 43.1 °F 30.01 in Calm   9.0 mph 56 % 0.00 in 213.00 W/m2
18:46 58.6 °F 43.0 °F 30.00 in Calm   1.0 mph 56 % 0.00 in 199.00 W/m2
18:51 58.6 °F 42.5 °F 30.00 in NNW 1.0 mph 1.0 mph 55 % 0.00 in 178.00 W/m2
18:56 58.5 °F 41.5 °F 30.01 in Calm   1.0 mph 53 % 0.00 in 162.00 W/m2
19:01 58.5 °F 44.7 °F 30.00 in Calm   1.0 mph 60 % 0.00 in 139.00 W/m2
19:06 58.2 °F 43.5 °F 30.00 in NNW 4.0 mph 4.0 mph 58 % 0.00 in 113.00 W/m2
19:11 58.0 °F 44.2 °F 30.00 in Calm   10.0 mph 60 % 0.00 in 104.00 W/m2
19:16 57.9 °F 45.8 °F 30.01 in Calm   1.0 mph 64 % 0.00 in 90.00 W/m2
19:21 57.6 °F 46.3 °F 30.01 in Calm   10.0 mph 66 % 0.00 in 70.00 W/m2
19:26 57.3 °F 46.0 °F 30.00 in Calm   1.0 mph 66 % 0.00 in 58.00 W/m2
19:31 56.9 °F 46.1 °F 30.01 in Calm   1.0 mph 67 % 0.00 in 44.00 W/m2
19:36 56.5 °F 46.1 °F 30.01 in Calm   1.0 mph 68 % 0.00 in 32.00 W/m2
19:41 56.1 °F 46.1 °F 30.01 in Calm   1.0 mph 69 % 0.00 in 25.00 W/m2
19:46 55.8 °F 45.8 °F 30.01 in Calm   1.0 mph 69 % 0.00 in 19.00 W/m2
19:51 55.6 °F 45.6 °F 30.01 in Calm   1.0 mph 69 % 0.00 in 14.00 W/m2
19:56 55.3 °F 44.9 °F 30.01 in Calm   1.0 mph 68 % 0.00 in 12.00 W/m2
20:01 55.0 °F 44.3 °F 30.01 in Calm   1.0 mph 67 % 0.00 in 11.00 W/m2
20:06 54.6 °F 43.9 °F 30.01 in NW 1.0 mph 1.0 mph 67 % 0.00 in 9.00 W/m2
20:11 54.4 °F 44.1 °F 30.01 in Calm   1.0 mph 68 % 0.00 in 5.00 W/m2
20:16 54.1 °F 44.2 °F 30.01 in Calm   1.0 mph 69 % 0.00 in 0.00 W/m2
20:21 53.9 °F 44.0 °F 30.02 in Calm   1.0 mph 69 % 0.00 in 0.00 W/m2
20:26 53.6 °F 43.7 °F 30.02 in Calm   1.0 mph 69 % 0.00 in 0.00 W/m2
20:31 53.3 °F 43.4 °F 30.02 in Calm   1.0 mph 69 % 0.00 in 0.00 W/m2
20:36 53.1 °F 43.6 °F 30.02 in Calm   1.0 mph 70 % 0.00 in 0.00 W/m2
20:41 52.8 °F 42.9 °F 30.02 in Calm   1.0 mph 69 % 0.00 in 0.00 W/m2
20:46 52.5 °F 42.6 °F 30.02 in Calm   1.0 mph 69 % 0.00 in 0.00 W/m2
20:51 52.3 °F 42.5 °F 30.02 in Calm   1.0 mph 69 % 0.00 in 0.00 W/m2
20:56 52.2 °F 42.0 °F 30.02 in Calm     68 % 0.00 in 0.00 W/m2
21:01 52.0 °F 42.5 °F 30.03 in Calm     70 % 0.00 in 0.00 W/m2
21:06 51.8 °F 42.0 °F 30.03 in Calm     69 % 0.00 in 0.00 W/m2
21:11 51.6 °F 42.2 °F 30.03 in Calm     70 % 0.00 in 0.00 W/m2
21:16 51.4 °F 42.3 °F 30.03 in Calm     71 % 0.00 in 0.00 W/m2
21:21 51.2 °F 41.8 °F 30.03 in Calm     70 % 0.00 in 0.00 W/m2
21:26 50.9 °F 41.5 °F 30.03 in Calm     70 % 0.00 in 0.00 W/m2
21:31 50.8 °F 41.4 °F 30.03 in Calm   1.0 mph 70 % 0.00 in 0.00 W/m2
21:36 50.6 °F 40.8 °F 30.04 in Calm   1.0 mph 69 % 0.00 in 0.00 W/m2
21:41 50.6 °F 40.8 °F 30.04 in Calm     69 % 0.00 in 0.00 W/m2
21:46 50.5 °F 40.7 °F 30.04 in Calm     69 % 0.00 in 0.00 W/m2
21:51 50.5 °F 41.1 °F 30.04 in Calm     70 % 0.00 in 0.00 W/m2
21:56 50.5 °F 41.8 °F 30.04 in Calm   1.0 mph 72 % 0.00 in 0.00 W/m2
22:01 50.6 °F 41.9 °F 30.04 in Calm     72 % 0.00 in 0.00 W/m2
22:06 50.5 °F 41.5 °F 30.04 in NNE 1.0 mph 1.0 mph 71 % 0.00 in 0.00 W/m2
22:11 50.5 °F 41.5 °F 30.04 in Calm   1.0 mph 71 % 0.00 in 0.00 W/m2
22:17 50.4 °F 41.4 °F 30.04 in Calm     71 % 0.00 in 0.00 W/m2
22:22 50.4 °F 42.1 °F 30.04 in Calm   1.0 mph 73 % 0.00 in 0.00 W/m2
22:27 50.3 °F 41.6 °F 30.04 in Calm   1.0 mph 72 % 0.00 in 0.00 W/m2
22:32 50.3 °F 41.3 °F 30.04 in Calm   1.0 mph 71 % 0.00 in 0.00 W/m2
22:37 50.3 °F 41.3 °F 30.04 in Calm   1.0 mph 71 % 0.00 in 0.00 W/m2
22:42 50.3 °F 41.6 °F 30.04 in Calm   1.0 mph 72 % 0.00 in 0.00 W/m2
22:47 50.3 °F 42.0 °F 30.04 in Calm   1.0 mph 73 % 0.00 in 0.00 W/m2
22:52 50.2 °F 41.9 °F 30.04 in Calm   1.0 mph 73 % 0.00 in 0.00 W/m2
22:57 50.2 °F 42.2 °F 30.04 in Calm   1.0 mph 74 % 0.00 in 0.00 W/m2
23:02 50.2 °F 41.9 °F 30.03 in Calm   1.0 mph 73 % 0.00 in 0.00 W/m2
23:07 50.2 °F 41.5 °F 30.03 in Calm   1.0 mph 72 % 0.00 in 0.00 W/m2
23:12 50.2 °F 41.5 °F 30.03 in Calm     72 % 0.00 in 0.00 W/m2
23:17 50.1 °F 41.4 °F 30.03 in Calm   1.0 mph 72 % 0.00 in 0.00 W/m2
23:22 50.1 °F 41.8 °F 30.03 in Calm     73 % 0.00 in 0.00 W/m2
23:27 50.1 °F 41.4 °F 30.03 in Calm   1.0 mph 72 % 0.00 in 0.00 W/m2
23:32 49.9 °F 40.9 °F 30.03 in Calm   1.0 mph 71 % 0.00 in 0.00 W/m2
23:37 49.9 °F 41.2 °F 30.03 in Calm   1.0 mph 72 % 0.00 in 0.00 W/m2
23:41 49.8 °F 41.2 °F 30.03 in Calm   1.0 mph 72 % 0.00 in 0.00 W/m2
23:47 49.7 °F 40.7 °F 30.03 in Calm   1.0 mph 71 % 0.00 in 0.00 W/m2
23:52 49.7 °F 41.0 °F 30.04 in Calm   1.0 mph 72 % 0.00 in 0.00 W/m2
23:57 49.6 °F 41.0 °F 30.04 in Calm   1.0 mph 72 % 0.00 in 0.00 W/m2
Juneau County Weather
Compliments of Weather Underground - 4.5 mb
 WU-history PHP script courtesy of   Juneau County Weather.
powered by Cumulus v1.9.3 (1059)
Ambient Weather VWS v14.00
Top Contact Website Map Copyright © 2007 - 2018 Foresthillweather.com Never base important decisions on this or any weather information obtained from the Internet